sensor_id;sensor_type;location;lat;lon;timestamp;P1;durP1;ratioP1;P2;durP2;ratioP2
5225;SDS011;2632;51.666;7.146;2024-01-11T00:01:29;60.80;;;28.03;;
5225;SDS011;2632;51.666;7.146;2024-01-11T00:03:56;58.77;;;26.67;;
5225;SDS011;2632;51.666;7.146;2024-01-11T00:06:23;58.93;;;28.30;;
5225;SDS011;2632;51.666;7.146;2024-01-11T00:08:50;62.60;;;29.17;;
5225;SDS011;2632;51.666;7.146;2024-01-11T00:11:17;61.30;;;28.67;;
5225;SDS011;2632;51.666;7.146;2024-01-11T00:13:44;59.90;;;26.77;;
5225;SDS011;2632;51.666;7.146;2024-01-11T00:16:12;59.23;;;27.17;;
5225;SDS011;2632;51.666;7.146;2024-01-11T00:18:39;53.70;;;27.80;;
5225;SDS011;2632;51.666;7.146;2024-01-11T00:21:06;57.03;;;28.53;;
5225;SDS011;2632;51.666;7.146;2024-01-11T00:23:33;54.20;;;27.20;;
5225;SDS011;2632;51.666;7.146;2024-01-11T00:26:00;57.83;;;28.10;;
5225;SDS011;2632;51.666;7.146;2024-01-11T00:28:27;59.33;;;28.47;;
5225;SDS011;2632;51.666;7.146;2024-01-11T00:30:54;62.80;;;27.50;;
5225;SDS011;2632;51.666;7.146;2024-01-11T00:33:21;59.37;;;27.33;;
5225;SDS011;2632;51.666;7.146;2024-01-11T00:35:48;58.13;;;29.30;;
5225;SDS011;2632;51.666;7.146;2024-01-11T00:38:15;56.33;;;26.87;;
5225;SDS011;2632;51.666;7.146;2024-01-11T00:40:43;59.70;;;28.17;;
5225;SDS011;2632;51.666;7.146;2024-01-11T00:43:10;60.67;;;29.47;;
5225;SDS011;2632;51.666;7.146;2024-01-11T00:45:37;62.37;;;27.43;;
5225;SDS011;2632;51.666;7.146;2024-01-11T00:48:04;58.17;;;29.40;;
5225;SDS011;2632;51.666;7.146;2024-01-11T00:50:32;60.53;;;28.10;;
5225;SDS011;2632;51.666;7.146;2024-01-11T00:52:59;55.30;;;28.37;;
5225;SDS011;2632;51.666;7.146;2024-01-11T00:55:27;55.07;;;27.00;;
5225;SDS011;2632;51.666;7.146;2024-01-11T00:57:54;66.10;;;29.57;;
5225;SDS011;2632;51.666;7.146;2024-01-11T01:00:21;57.03;;;26.93;;
5225;SDS011;2632;51.666;7.146;2024-01-11T01:02:48;68.30;;;30.17;;
5225;SDS011;2632;51.666;7.146;2024-01-11T01:05:15;58.30;;;29.93;;
5225;SDS011;2632;51.666;7.146;2024-01-11T01:07:42;61.20;;;29.77;;
5225;SDS011;2632;51.666;7.146;2024-01-11T01:10:09;51.53;;;26.97;;
5225;SDS011;2632;51.666;7.146;2024-01-11T01:12:36;59.27;;;29.57;;
5225;SDS011;2632;51.666;7.146;2024-01-11T01:15:04;59.70;;;28.10;;
5225;SDS011;2632;51.666;7.146;2024-01-11T01:17:31;59.87;;;27.63;;
5225;SDS011;2632;51.666;7.146;2024-01-11T01:19:58;60.63;;;27.20;;
5225;SDS011;2632;51.666;7.146;2024-01-11T01:22:25;58.40;;;27.47;;
5225;SDS011;2632;51.666;7.146;2024-01-11T01:24:52;56.73;;;29.17;;
5225;SDS011;2632;51.666;7.146;2024-01-11T01:27:19;57.60;;;29.50;;
5225;SDS011;2632;51.666;7.146;2024-01-11T01:29:46;55.17;;;28.90;;
5225;SDS011;2632;51.666;7.146;2024-01-11T01:32:13;57.77;;;29.53;;
5225;SDS011;2632;51.666;7.146;2024-01-11T01:34:40;58.93;;;28.40;;
5225;SDS011;2632;51.666;7.146;2024-01-11T01:37:10;58.30;;;28.60;;
5225;SDS011;2632;51.666;7.146;2024-01-11T01:39:38;60.90;;;27.57;;
5225;SDS011;2632;51.666;7.146;2024-01-11T01:42:05;58.43;;;29.47;;
5225;SDS011;2632;51.666;7.146;2024-01-11T01:44:33;60.70;;;27.77;;
5225;SDS011;2632;51.666;7.146;2024-01-11T01:47:00;55.20;;;27.70;;
5225;SDS011;2632;51.666;7.146;2024-01-11T01:49:29;59.97;;;29.20;;
5225;SDS011;2632;51.666;7.146;2024-01-11T01:51:57;62.60;;;29.00;;
5225;SDS011;2632;51.666;7.146;2024-01-11T01:54:24;57.30;;;28.83;;
5225;SDS011;2632;51.666;7.146;2024-01-11T01:56:51;61.33;;;28.30;;
5225;SDS011;2632;51.666;7.146;2024-01-11T01:59:19;59.40;;;27.57;;
5225;SDS011;2632;51.666;7.146;2024-01-11T02:01:46;57.87;;;29.10;;
5225;SDS011;2632;51.666;7.146;2024-01-11T02:04:14;60.87;;;30.53;;
5225;SDS011;2632;51.666;7.146;2024-01-11T02:06:41;61.03;;;28.97;;
5225;SDS011;2632;51.666;7.146;2024-01-11T02:09:11;58.83;;;28.73;;
5225;SDS011;2632;51.666;7.146;2024-01-11T02:11:40;65.30;;;28.80;;
5225;SDS011;2632;51.666;7.146;2024-01-11T02:14:07;61.90;;;29.80;;
5225;SDS011;2632;51.666;7.146;2024-01-11T02:16:36;59.40;;;28.83;;
5225;SDS011;2632;51.666;7.146;2024-01-11T02:19:04;55.33;;;27.73;;
5225;SDS011;2632;51.666;7.146;2024-01-11T02:21:33;63.30;;;29.43;;
5225;SDS011;2632;51.666;7.146;2024-01-11T02:24:04;61.87;;;29.70;;
5225;SDS011;2632;51.666;7.146;2024-01-11T02:26:31;59.93;;;29.83;;
5225;SDS011;2632;51.666;7.146;2024-01-11T02:28:58;58.00;;;29.20;;
5225;SDS011;2632;51.666;7.146;2024-01-11T02:31:26;64.63;;;30.40;;
5225;SDS011;2632;51.666;7.146;2024-01-11T02:33:53;61.47;;;29.00;;
5225;SDS011;2632;51.666;7.146;2024-01-11T02:36:21;61.57;;;29.50;;
5225;SDS011;2632;51.666;7.146;2024-01-11T02:38:48;59.27;;;29.10;;
5225;SDS011;2632;51.666;7.146;2024-01-11T02:41:16;59.13;;;29.87;;
5225;SDS011;2632;51.666;7.146;2024-01-11T02:43:47;59.27;;;28.60;;
5225;SDS011;2632;51.666;7.146;2024-01-11T02:46:15;54.77;;;28.47;;
5225;SDS011;2632;51.666;7.146;2024-01-11T02:48:42;64.97;;;30.10;;
5225;SDS011;2632;51.666;7.146;2024-01-11T02:51:09;57.17;;;28.77;;
5225;SDS011;2632;51.666;7.146;2024-01-11T02:53:36;60.17;;;29.20;;
5225;SDS011;2632;51.666;7.146;2024-01-11T02:56:04;62.80;;;29.80;;
5225;SDS011;2632;51.666;7.146;2024-01-11T02:58:31;56.97;;;29.50;;
5225;SDS011;2632;51.666;7.146;2024-01-11T03:00:58;63.80;;;29.57;;
5225;SDS011;2632;51.666;7.146;2024-01-11T03:03:25;58.60;;;28.27;;
5225;SDS011;2632;51.666;7.146;2024-01-11T03:05:52;56.63;;;28.43;;
5225;SDS011;2632;51.666;7.146;2024-01-11T03:08:19;56.13;;;28.67;;
5225;SDS011;2632;51.666;7.146;2024-01-11T03:10:47;56.47;;;27.80;;
5225;SDS011;2632;51.666;7.146;2024-01-11T03:13:14;58.63;;;27.33;;
5225;SDS011;2632;51.666;7.146;2024-01-11T03:15:41;58.13;;;27.37;;
5225;SDS011;2632;51.666;7.146;2024-01-11T03:18:08;58.77;;;29.10;;
5225;SDS011;2632;51.666;7.146;2024-01-11T03:20:35;61.33;;;28.67;;
5225;SDS011;2632;51.666;7.146;2024-01-11T03:23:02;62.10;;;29.57;;
5225;SDS011;2632;51.666;7.146;2024-01-11T03:25:30;60.30;;;30.57;;
5225;SDS011;2632;51.666;7.146;2024-01-11T03:28:00;65.40;;;29.60;;
5225;SDS011;2632;51.666;7.146;2024-01-11T03:30:27;63.23;;;30.37;;
5225;SDS011;2632;51.666;7.146;2024-01-11T03:32:55;64.13;;;29.50;;
5225;SDS011;2632;51.666;7.146;2024-01-11T03:35:22;56.37;;;28.23;;
5225;SDS011;2632;51.666;7.146;2024-01-11T03:37:49;60.27;;;29.83;;
5225;SDS011;2632;51.666;7.146;2024-01-11T03:40:17;61.80;;;27.63;;
5225;SDS011;2632;51.666;7.146;2024-01-11T03:42:44;59.50;;;26.70;;
5225;SDS011;2632;51.666;7.146;2024-01-11T03:45:11;59.10;;;29.37;;
5225;SDS011;2632;51.666;7.146;2024-01-11T03:47:38;65.30;;;29.23;;
5225;SDS011;2632;51.666;7.146;2024-01-11T03:50:06;54.40;;;28.90;;
5225;SDS011;2632;51.666;7.146;2024-01-11T03:52:33;67.77;;;30.60;;
5225;SDS011;2632;51.666;7.146;2024-01-11T03:55:00;58.93;;;29.37;;
5225;SDS011;2632;51.666;7.146;2024-01-11T03:57:27;66.43;;;30.07;;
5225;SDS011;2632;51.666;7.146;2024-01-11T03:59:54;60.77;;;28.17;;
5225;SDS011;2632;51.666;7.146;2024-01-11T04:02:21;65.80;;;30.17;;
5225;SDS011;2632;51.666;7.146;2024-01-11T04:04:48;58.63;;;29.17;;
5225;SDS011;2632;51.666;7.146;2024-01-11T04:07:15;58.07;;;29.20;;
5225;SDS011;2632;51.666;7.146;2024-01-11T04:09:43;62.27;;;27.93;;
5225;SDS011;2632;51.666;7.146;2024-01-11T04:12:10;56.33;;;26.93;;
5225;SDS011;2632;51.666;7.146;2024-01-11T04:14:37;59.60;;;28.40;;
5225;SDS011;2632;51.666;7.146;2024-01-11T04:17:06;55.30;;;27.60;;
5225;SDS011;2632;51.666;7.146;2024-01-11T04:19:33;62.50;;;29.60;;
5225;SDS011;2632;51.666;7.146;2024-01-11T04:22:00;62.87;;;29.83;;
5225;SDS011;2632;51.666;7.146;2024-01-11T04:24:27;66.23;;;29.00;;
5225;SDS011;2632;51.666;7.146;2024-01-11T04:26:54;60.43;;;28.23;;
5225;SDS011;2632;51.666;7.146;2024-01-11T04:29:21;56.20;;;27.63;;
5225;SDS011;2632;51.666;7.146;2024-01-11T04:31:48;58.40;;;29.20;;
5225;SDS011;2632;51.666;7.146;2024-01-11T04:34:15;61.40;;;29.00;;
5225;SDS011;2632;51.666;7.146;2024-01-11T04:36:42;58.57;;;28.43;;
5225;SDS011;2632;51.666;7.146;2024-01-11T04:39:09;55.57;;;28.87;;
5225;SDS011;2632;51.666;7.146;2024-01-11T04:41:37;58.50;;;27.70;;
5225;SDS011;2632;51.666;7.146;2024-01-11T04:44:05;55.87;;;28.43;;
5225;SDS011;2632;51.666;7.146;2024-01-11T04:46:32;57.70;;;28.53;;
5225;SDS011;2632;51.666;7.146;2024-01-11T04:48:59;55.60;;;27.27;;
5225;SDS011;2632;51.666;7.146;2024-01-11T04:51:26;53.73;;;27.80;;
5225;SDS011;2632;51.666;7.146;2024-01-11T04:53:53;57.00;;;27.73;;
5225;SDS011;2632;51.666;7.146;2024-01-11T04:56:20;64.40;;;29.00;;
5225;SDS011;2632;51.666;7.146;2024-01-11T04:58:48;63.63;;;28.93;;
5225;SDS011;2632;51.666;7.146;2024-01-11T05:01:15;62.97;;;27.00;;
5225;SDS011;2632;51.666;7.146;2024-01-11T05:03:43;63.00;;;29.20;;
5225;SDS011;2632;51.666;7.146;2024-01-11T05:06:21;53.93;;;28.60;;
5225;SDS011;2632;51.666;7.146;2024-01-11T05:08:51;66.20;;;28.60;;
5225;SDS011;2632;51.666;7.146;2024-01-11T05:11:19;61.60;;;27.70;;
5225;SDS011;2632;51.666;7.146;2024-01-11T05:13:47;56.87;;;28.63;;
5225;SDS011;2632;51.666;7.146;2024-01-11T05:18:44;57.50;;;28.00;;
5225;SDS011;2632;51.666;7.146;2024-01-11T05:21:12;58.30;;;29.53;;
5225;SDS011;2632;51.666;7.146;2024-01-11T05:23:40;62.30;;;28.70;;
5225;SDS011;2632;51.666;7.146;2024-01-11T05:26:08;52.33;;;26.63;;
5225;SDS011;2632;51.666;7.146;2024-01-11T05:28:35;58.27;;;28.67;;
5225;SDS011;2632;51.666;7.146;2024-01-11T05:31:11;59.43;;;28.70;;
5225;SDS011;2632;51.666;7.146;2024-01-11T05:33:38;59.80;;;28.03;;
5225;SDS011;2632;51.666;7.146;2024-01-11T05:36:06;54.37;;;27.43;;
5225;SDS011;2632;51.666;7.146;2024-01-11T05:38:34;56.50;;;28.67;;
5225;SDS011;2632;51.666;7.146;2024-01-11T05:41:01;61.10;;;28.67;;
5225;SDS011;2632;51.666;7.146;2024-01-11T05:43:28;64.73;;;29.30;;
5225;SDS011;2632;51.666;7.146;2024-01-11T05:45:55;56.67;;;29.20;;
5225;SDS011;2632;51.666;7.146;2024-01-11T05:48:22;55.10;;;27.23;;
5225;SDS011;2632;51.666;7.146;2024-01-11T05:50:50;56.17;;;27.53;;
5225;SDS011;2632;51.666;7.146;2024-01-11T05:53:17;68.03;;;28.93;;
5225;SDS011;2632;51.666;7.146;2024-01-11T05:55:47;63.67;;;29.70;;
5225;SDS011;2632;51.666;7.146;2024-01-11T05:58:16;58.43;;;28.70;;
5225;SDS011;2632;51.666;7.146;2024-01-11T06:00:43;55.60;;;27.43;;
5225;SDS011;2632;51.666;7.146;2024-01-11T06:03:14;59.33;;;29.00;;
5225;SDS011;2632;51.666;7.146;2024-01-11T06:05:41;67.33;;;30.40;;
5225;SDS011;2632;51.666;7.146;2024-01-11T06:08:08;61.03;;;28.57;;
5225;SDS011;2632;51.666;7.146;2024-01-11T06:10:36;63.77;;;30.03;;
5225;SDS011;2632;51.666;7.146;2024-01-11T06:13:03;71.47;;;29.63;;
5225;SDS011;2632;51.666;7.146;2024-01-11T06:15:30;58.03;;;31.40;;
5225;SDS011;2632;51.666;7.146;2024-01-11T06:17:58;68.87;;;30.80;;
5225;SDS011;2632;51.666;7.146;2024-01-11T06:20:25;60.53;;;31.20;;
5225;SDS011;2632;51.666;7.146;2024-01-11T06:22:52;63.87;;;32.20;;
5225;SDS011;2632;51.666;7.146;2024-01-11T06:25:19;59.43;;;29.00;;
5225;SDS011;2632;51.666;7.146;2024-01-11T06:27:46;61.23;;;30.00;;
5225;SDS011;2632;51.666;7.146;2024-01-11T06:30:14;58.60;;;29.80;;
5225;SDS011;2632;51.666;7.146;2024-01-11T06:32:41;68.03;;;31.30;;
5225;SDS011;2632;51.666;7.146;2024-01-11T06:35:09;60.73;;;29.80;;
5225;SDS011;2632;51.666;7.146;2024-01-11T06:37:36;63.60;;;29.73;;
5225;SDS011;2632;51.666;7.146;2024-01-11T06:40:03;62.00;;;29.30;;
5225;SDS011;2632;51.666;7.146;2024-01-11T06:42:30;60.50;;;29.13;;
5225;SDS011;2632;51.666;7.146;2024-01-11T06:44:58;62.53;;;31.30;;
5225;SDS011;2632;51.666;7.146;2024-01-11T06:47:25;60.27;;;30.00;;
5225;SDS011;2632;51.666;7.146;2024-01-11T06:49:53;58.23;;;28.70;;
5225;SDS011;2632;51.666;7.146;2024-01-11T06:52:20;62.57;;;29.83;;
5225;SDS011;2632;51.666;7.146;2024-01-11T06:54:47;68.83;;;30.10;;
5225;SDS011;2632;51.666;7.146;2024-01-11T06:57:14;60.97;;;28.83;;
5225;SDS011;2632;51.666;7.146;2024-01-11T06:59:41;63.23;;;30.87;;
5225;SDS011;2632;51.666;7.146;2024-01-11T07:02:10;68.63;;;32.07;;
5225;SDS011;2632;51.666;7.146;2024-01-11T07:04:37;80.97;;;32.90;;
5225;SDS011;2632;51.666;7.146;2024-01-11T07:07:04;63.50;;;28.60;;
5225;SDS011;2632;51.666;7.146;2024-01-11T07:09:31;66.00;;;30.47;;
5225;SDS011;2632;51.666;7.146;2024-01-11T07:11:58;62.47;;;29.53;;
5225;SDS011;2632;51.666;7.146;2024-01-11T07:14:25;65.00;;;28.80;;
5225;SDS011;2632;51.666;7.146;2024-01-11T07:16:52;57.10;;;28.60;;
5225;SDS011;2632;51.666;7.146;2024-01-11T07:19:19;63.77;;;30.50;;
5225;SDS011;2632;51.666;7.146;2024-01-11T07:21:46;70.57;;;33.50;;
5225;SDS011;2632;51.666;7.146;2024-01-11T07:24:13;61.07;;;29.90;;
5225;SDS011;2632;51.666;7.146;2024-01-11T07:26:41;66.10;;;30.07;;
5225;SDS011;2632;51.666;7.146;2024-01-11T07:29:09;62.53;;;29.60;;
5225;SDS011;2632;51.666;7.146;2024-01-11T07:31:36;61.33;;;29.90;;
5225;SDS011;2632;51.666;7.146;2024-01-11T07:34:03;63.57;;;29.97;;
5225;SDS011;2632;51.666;7.146;2024-01-11T07:36:31;65.80;;;29.93;;
5225;SDS011;2632;51.666;7.146;2024-01-11T07:38:58;63.03;;;29.90;;
5225;SDS011;2632;51.666;7.146;2024-01-11T07:41:25;62.30;;;29.90;;
5225;SDS011;2632;51.666;7.146;2024-01-11T07:43:52;62.03;;;30.43;;
5225;SDS011;2632;51.666;7.146;2024-01-11T07:46:20;69.87;;;30.73;;
5225;SDS011;2632;51.666;7.146;2024-01-11T07:49:02;63.67;;;30.13;;
5225;SDS011;2632;51.666;7.146;2024-01-11T07:51:29;60.00;;;29.00;;
5225;SDS011;2632;51.666;7.146;2024-01-11T07:53:56;61.10;;;29.97;;
5225;SDS011;2632;51.666;7.146;2024-01-11T07:56:24;56.93;;;28.40;;
5225;SDS011;2632;51.666;7.146;2024-01-11T07:58:51;70.27;;;30.00;;
5225;SDS011;2632;51.666;7.146;2024-01-11T08:01:18;63.93;;;27.63;;
5225;SDS011;2632;51.666;7.146;2024-01-11T08:03:49;55.43;;;28.73;;
5225;SDS011;2632;51.666;7.146;2024-01-11T08:06:19;64.40;;;31.63;;
5225;SDS011;2632;51.666;7.146;2024-01-11T08:08:46;64.10;;;30.80;;
5225;SDS011;2632;51.666;7.146;2024-01-11T08:11:19;63.43;;;30.37;;
5225;SDS011;2632;51.666;7.146;2024-01-11T08:13:46;59.07;;;28.23;;
5225;SDS011;2632;51.666;7.146;2024-01-11T08:16:16;74.87;;;30.43;;
5225;SDS011;2632;51.666;7.146;2024-01-11T08:18:44;62.70;;;30.87;;
5225;SDS011;2632;51.666;7.146;2024-01-11T08:21:12;61.63;;;31.40;;
5225;SDS011;2632;51.666;7.146;2024-01-11T08:23:39;64.87;;;31.00;;
5225;SDS011;2632;51.666;7.146;2024-01-11T08:26:11;70.23;;;32.10;;
5225;SDS011;2632;51.666;7.146;2024-01-11T08:28:40;62.90;;;32.50;;
5225;SDS011;2632;51.666;7.146;2024-01-11T08:31:07;64.53;;;30.27;;
5225;SDS011;2632;51.666;7.146;2024-01-11T08:33:35;66.97;;;30.50;;
5225;SDS011;2632;51.666;7.146;2024-01-11T08:36:04;64.17;;;31.23;;
5225;SDS011;2632;51.666;7.146;2024-01-11T08:38:31;60.97;;;30.40;;
5225;SDS011;2632;51.666;7.146;2024-01-11T08:40:58;62.07;;;31.10;;
5225;SDS011;2632;51.666;7.146;2024-01-11T08:43:26;61.40;;;30.10;;
5225;SDS011;2632;51.666;7.146;2024-01-11T08:45:53;61.83;;;29.80;;
5225;SDS011;2632;51.666;7.146;2024-01-11T08:48:20;57.83;;;29.90;;
5225;SDS011;2632;51.666;7.146;2024-01-11T08:50:48;61.97;;;26.70;;
5225;SDS011;2632;51.666;7.146;2024-01-11T08:53:15;56.17;;;26.63;;
5225;SDS011;2632;51.666;7.146;2024-01-11T08:55:42;53.27;;;25.97;;
5225;SDS011;2632;51.666;7.146;2024-01-11T08:58:12;57.17;;;25.10;;
5225;SDS011;2632;51.666;7.146;2024-01-11T09:00:39;45.73;;;24.13;;
5225;SDS011;2632;51.666;7.146;2024-01-11T09:03:07;56.70;;;25.03;;
5225;SDS011;2632;51.666;7.146;2024-01-11T09:05:34;54.93;;;27.40;;
5225;SDS011;2632;51.666;7.146;2024-01-11T09:08:01;47.83;;;24.17;;
5225;SDS011;2632;51.666;7.146;2024-01-11T09:10:30;50.90;;;24.97;;
5225;SDS011;2632;51.666;7.146;2024-01-11T09:12:57;47.30;;;24.40;;
5225;SDS011;2632;51.666;7.146;2024-01-11T09:15:24;50.27;;;23.23;;
5225;SDS011;2632;51.666;7.146;2024-01-11T09:17:51;46.20;;;21.90;;
5225;SDS011;2632;51.666;7.146;2024-01-11T09:20:18;56.00;;;24.70;;
5225;SDS011;2632;51.666;7.146;2024-01-11T09:22:46;52.77;;;23.40;;
5225;SDS011;2632;51.666;7.146;2024-01-11T09:25:13;52.80;;;23.80;;
5225;SDS011;2632;51.666;7.146;2024-01-11T09:27:40;50.17;;;22.23;;
5225;SDS011;2632;51.666;7.146;2024-01-11T09:30:07;49.60;;;22.37;;
5225;SDS011;2632;51.666;7.146;2024-01-11T09:32:35;53.13;;;22.90;;
5225;SDS011;2632;51.666;7.146;2024-01-11T09:35:03;53.20;;;23.80;;
5225;SDS011;2632;51.666;7.146;2024-01-11T09:37:31;44.87;;;21.23;;
5225;SDS011;2632;51.666;7.146;2024-01-11T09:39:58;47.80;;;22.17;;
5225;SDS011;2632;51.666;7.146;2024-01-11T09:42:27;41.73;;;21.17;;
5225;SDS011;2632;51.666;7.146;2024-01-11T09:44:55;48.37;;;22.43;;
5225;SDS011;2632;51.666;7.146;2024-01-11T09:47:23;43.17;;;20.37;;
5225;SDS011;2632;51.666;7.146;2024-01-11T09:49:51;45.90;;;23.30;;
5225;SDS011;2632;51.666;7.146;2024-01-11T09:52:19;45.70;;;21.97;;
5225;SDS011;2632;51.666;7.146;2024-01-11T09:54:46;45.00;;;22.10;;
5225;SDS011;2632;51.666;7.146;2024-01-11T09:57:13;49.43;;;21.67;;
5225;SDS011;2632;51.666;7.146;2024-01-11T09:59:42;48.33;;;22.80;;
5225;SDS011;2632;51.666;7.146;2024-01-11T10:02:10;47.87;;;21.63;;
5225;SDS011;2632;51.666;7.146;2024-01-11T10:04:38;55.50;;;22.27;;
5225;SDS011;2632;51.666;7.146;2024-01-11T10:07:05;47.70;;;22.63;;
5225;SDS011;2632;51.666;7.146;2024-01-11T10:09:33;48.17;;;21.67;;
5225;SDS011;2632;51.666;7.146;2024-01-11T10:12:00;45.87;;;22.40;;
5225;SDS011;2632;51.666;7.146;2024-01-11T10:14:27;50.87;;;23.27;;
5225;SDS011;2632;51.666;7.146;2024-01-11T10:16:54;45.90;;;21.73;;
5225;SDS011;2632;51.666;7.146;2024-01-11T10:19:21;50.03;;;21.93;;
5225;SDS011;2632;51.666;7.146;2024-01-11T10:21:49;44.80;;;20.30;;
5225;SDS011;2632;51.666;7.146;2024-01-11T10:24:19;43.97;;;21.60;;
5225;SDS011;2632;51.666;7.146;2024-01-11T10:26:48;46.07;;;21.10;;
5225;SDS011;2632;51.666;7.146;2024-01-11T10:29:15;43.13;;;19.37;;
5225;SDS011;2632;51.666;7.146;2024-01-11T10:31:44;49.90;;;21.37;;
5225;SDS011;2632;51.666;7.146;2024-01-11T10:34:11;40.00;;;19.33;;
5225;SDS011;2632;51.666;7.146;2024-01-11T10:36:38;42.27;;;20.00;;
5225;SDS011;2632;51.666;7.146;2024-01-11T10:39:07;42.23;;;18.00;;
5225;SDS011;2632;51.666;7.146;2024-01-11T10:41:38;42.00;;;19.93;;
5225;SDS011;2632;51.666;7.146;2024-01-11T10:44:09;42.90;;;19.20;;
5225;SDS011;2632;51.666;7.146;2024-01-11T10:46:40;41.57;;;18.63;;
5225;SDS011;2632;51.666;7.146;2024-01-11T10:49:09;45.40;;;19.53;;
5225;SDS011;2632;51.666;7.146;2024-01-11T10:51:38;43.70;;;19.93;;
5225;SDS011;2632;51.666;7.146;2024-01-11T10:54:06;40.07;;;18.93;;
5225;SDS011;2632;51.666;7.146;2024-01-11T10:56:33;40.10;;;18.50;;
5225;SDS011;2632;51.666;7.146;2024-01-11T10:59:01;48.23;;;19.70;;
5225;SDS011;2632;51.666;7.146;2024-01-11T11:01:29;43.70;;;20.07;;
5225;SDS011;2632;51.666;7.146;2024-01-11T11:03:57;36.93;;;19.27;;
5225;SDS011;2632;51.666;7.146;2024-01-11T11:06:24;38.47;;;18.63;;
5225;SDS011;2632;51.666;7.146;2024-01-11T11:08:53;41.00;;;18.10;;
5225;SDS011;2632;51.666;7.146;2024-01-11T11:11:20;42.03;;;18.80;;
5225;SDS011;2632;51.666;7.146;2024-01-11T11:13:47;38.07;;;19.10;;
5225;SDS011;2632;51.666;7.146;2024-01-11T11:16:15;38.57;;;17.57;;
5225;SDS011;2632;51.666;7.146;2024-01-11T11:18:43;32.33;;;17.07;;
5225;SDS011;2632;51.666;7.146;2024-01-11T11:21:10;37.63;;;19.37;;
5225;SDS011;2632;51.666;7.146;2024-01-11T11:23:40;38.10;;;18.53;;
5225;SDS011;2632;51.666;7.146;2024-01-11T11:26:08;41.77;;;19.17;;
5225;SDS011;2632;51.666;7.146;2024-01-11T11:28:41;40.93;;;19.40;;
5225;SDS011;2632;51.666;7.146;2024-01-11T11:31:08;34.77;;;17.87;;
5225;SDS011;2632;51.666;7.146;2024-01-11T11:33:38;33.97;;;18.50;;
5225;SDS011;2632;51.666;7.146;2024-01-11T11:36:05;32.93;;;17.73;;
5225;SDS011;2632;51.666;7.146;2024-01-11T11:38:33;37.50;;;17.97;;
5225;SDS011;2632;51.666;7.146;2024-01-11T11:41:03;37.33;;;19.40;;
5225;SDS011;2632;51.666;7.146;2024-01-11T11:43:31;39.00;;;20.30;;
5225;SDS011;2632;51.666;7.146;2024-01-11T11:45:58;41.33;;;20.93;;
5225;SDS011;2632;51.666;7.146;2024-01-11T11:51:05;43.57;;;22.33;;
5225;SDS011;2632;51.666;7.146;2024-01-11T11:53:33;34.80;;;20.20;;
5225;SDS011;2632;51.666;7.146;2024-01-11T11:56:00;39.17;;;21.17;;
5225;SDS011;2632;51.666;7.146;2024-01-11T11:58:28;38.67;;;20.70;;
5225;SDS011;2632;51.666;7.146;2024-01-11T12:00:56;39.03;;;20.73;;
5225;SDS011;2632;51.666;7.146;2024-01-11T12:03:28;44.63;;;21.70;;
5225;SDS011;2632;51.666;7.146;2024-01-11T12:05:56;37.10;;;20.70;;
5225;SDS011;2632;51.666;7.146;2024-01-11T12:08:24;41.97;;;20.10;;
5225;SDS011;2632;51.666;7.146;2024-01-11T12:10:51;37.23;;;18.93;;
5225;SDS011;2632;51.666;7.146;2024-01-11T12:13:18;35.27;;;19.17;;
5225;SDS011;2632;51.666;7.146;2024-01-11T12:15:46;35.07;;;18.73;;
5225;SDS011;2632;51.666;7.146;2024-01-11T12:18:13;30.17;;;16.60;;
5225;SDS011;2632;51.666;7.146;2024-01-11T12:20:40;33.13;;;16.77;;
5225;SDS011;2632;51.666;7.146;2024-01-11T12:23:08;32.13;;;16.63;;
5225;SDS011;2632;51.666;7.146;2024-01-11T12:25:35;26.47;;;15.00;;
5225;SDS011;2632;51.666;7.146;2024-01-11T12:28:02;32.10;;;15.00;;
5225;SDS011;2632;51.666;7.146;2024-01-11T12:30:30;32.00;;;14.90;;
5225;SDS011;2632;51.666;7.146;2024-01-11T12:32:57;30.80;;;13.53;;
5225;SDS011;2632;51.666;7.146;2024-01-11T12:35:24;27.03;;;13.70;;
5225;SDS011;2632;51.666;7.146;2024-01-11T12:37:52;27.60;;;13.93;;
5225;SDS011;2632;51.666;7.146;2024-01-11T12:40:19;28.03;;;13.43;;
5225;SDS011;2632;51.666;7.146;2024-01-11T12:42:46;29.27;;;13.70;;
5225;SDS011;2632;51.666;7.146;2024-01-11T12:45:24;30.37;;;14.60;;
5225;SDS011;2632;51.666;7.146;2024-01-11T12:47:55;28.90;;;13.93;;
5225;SDS011;2632;51.666;7.146;2024-01-11T12:50:23;27.50;;;13.90;;
5225;SDS011;2632;51.666;7.146;2024-01-11T12:53:12;24.07;;;12.20;;
5225;SDS011;2632;51.666;7.146;2024-01-11T12:55:45;24.27;;;12.33;;
5225;SDS011;2632;51.666;7.146;2024-01-11T12:58:23;25.60;;;13.00;;
5225;SDS011;2632;51.666;7.146;2024-01-11T13:00:53;24.13;;;12.97;;
5225;SDS011;2632;51.666;7.146;2024-01-11T13:03:21;28.23;;;12.40;;
5225;SDS011;2632;51.666;7.146;2024-01-11T13:05:48;27.30;;;12.67;;
5225;SDS011;2632;51.666;7.146;2024-01-11T13:08:15;28.40;;;13.57;;
5225;SDS011;2632;51.666;7.146;2024-01-11T13:10:46;28.60;;;14.70;;
5225;SDS011;2632;51.666;7.146;2024-01-11T13:13:16;27.73;;;14.63;;
5225;SDS011;2632;51.666;7.146;2024-01-11T13:15:43;23.30;;;12.10;;
5225;SDS011;2632;51.666;7.146;2024-01-11T13:18:11;25.30;;;13.30;;
5225;SDS011;2632;51.666;7.146;2024-01-11T13:20:38;26.70;;;12.77;;
5225;SDS011;2632;51.666;7.146;2024-01-11T13:23:15;22.07;;;12.17;;
5225;SDS011;2632;51.666;7.146;2024-01-11T13:25:44;25.53;;;9.40;;
5225;SDS011;2632;51.666;7.146;2024-01-11T13:28:12;16.70;;;8.17;;
5225;SDS011;2632;51.666;7.146;2024-01-11T13:30:39;11.13;;;6.00;;
5225;SDS011;2632;51.666;7.146;2024-01-11T13:33:07;11.90;;;5.57;;
5225;SDS011;2632;51.666;7.146;2024-01-11T13:35:35;9.10;;;5.27;;
5225;SDS011;2632;51.666;7.146;2024-01-11T13:38:03;9.00;;;5.10;;
5225;SDS011;2632;51.666;7.146;2024-01-11T13:40:30;5.90;;;3.43;;
5225;SDS011;2632;51.666;7.146;2024-01-11T13:42:58;4.77;;;3.30;;
5225;SDS011;2632;51.666;7.146;2024-01-11T13:45:25;4.90;;;2.70;;
5225;SDS011;2632;51.666;7.146;2024-01-11T13:47:52;6.07;;;3.30;;
5225;SDS011;2632;51.666;7.146;2024-01-11T13:50:20;4.67;;;3.07;;
5225;SDS011;2632;51.666;7.146;2024-01-11T13:52:50;4.30;;;2.80;;
5225;SDS011;2632;51.666;7.146;2024-01-11T13:55:18;5.00;;;2.70;;
5225;SDS011;2632;51.666;7.146;2024-01-11T13:57:47;6.20;;;3.20;;
5225;SDS011;2632;51.666;7.146;2024-01-11T14:00:15;6.07;;;3.17;;
5225;SDS011;2632;51.666;7.146;2024-01-11T14:02:44;6.80;;;3.13;;
5225;SDS011;2632;51.666;7.146;2024-01-11T14:05:12;5.47;;;3.17;;
5225;SDS011;2632;51.666;7.146;2024-01-11T14:07:41;5.57;;;2.80;;
5225;SDS011;2632;51.666;7.146;2024-01-11T14:10:09;6.43;;;3.30;;
5225;SDS011;2632;51.666;7.146;2024-01-11T14:12:37;7.53;;;3.13;;
5225;SDS011;2632;51.666;7.146;2024-01-11T14:15:05;8.27;;;3.63;;
5225;SDS011;2632;51.666;7.146;2024-01-11T14:17:33;7.00;;;4.10;;
5225;SDS011;2632;51.666;7.146;2024-01-11T14:20:01;5.73;;;3.37;;
5225;SDS011;2632;51.666;7.146;2024-01-11T14:22:29;6.23;;;2.97;;
5225;SDS011;2632;51.666;7.146;2024-01-11T14:24:56;7.23;;;3.93;;
5225;SDS011;2632;51.666;7.146;2024-01-11T14:27:24;7.37;;;3.63;;
5225;SDS011;2632;51.666;7.146;2024-01-11T14:29:51;8.60;;;4.37;;
5225;SDS011;2632;51.666;7.146;2024-01-11T14:32:18;10.57;;;4.90;;
5225;SDS011;2632;51.666;7.146;2024-01-11T14:34:59;7.20;;;4.10;;
5225;SDS011;2632;51.666;7.146;2024-01-11T14:37:31;10.40;;;4.47;;
5225;SDS011;2632;51.666;7.146;2024-01-11T14:39:58;7.57;;;4.10;;
5225;SDS011;2632;51.666;7.146;2024-01-11T14:42:26;7.83;;;4.13;;
5225;SDS011;2632;51.666;7.146;2024-01-11T14:44:54;8.73;;;4.50;;
5225;SDS011;2632;51.666;7.146;2024-01-11T14:47:21;10.07;;;5.00;;
5225;SDS011;2632;51.666;7.146;2024-01-11T14:49:49;9.10;;;4.70;;
5225;SDS011;2632;51.666;7.146;2024-01-11T14:52:16;12.60;;;6.03;;
5225;SDS011;2632;51.666;7.146;2024-01-11T14:54:47;14.17;;;5.80;;
5225;SDS011;2632;51.666;7.146;2024-01-11T14:57:14;11.43;;;5.70;;
5225;SDS011;2632;51.666;7.146;2024-01-11T14:59:45;10.47;;;5.50;;